NCAR-RAP Real-Time Weather Data

Output produced by METARs form (23 July 2018  17:06 UTC)
found at http://weather.rap.ucar.edu/surface/
 
KINL 231655Z AUTO 25003KT 10SM FEW026 FEW033 23/19 A3002 RMK AO2 SLP165 T02330189
KINL 231626Z AUTO VRB03KT 10SM FEW019 SCT028 BKN034 23/20 A3002 RMK AO2 T02330200
KINL 231555Z AUTO 27005KT 10SM SCT016 OVC026 22/19 A3003 RMK AO2 SLP168 T02220189 $
KINL 231546Z AUTO 26006KT 10SM BKN016 OVC026 23/19 A3003 RMK AO2 T02330194 $
KINL 231535Z AUTO 27007KT 10SM BKN014 BKN029 OVC065 22/19 A3003 RMK AO2 T02220189 $
 
KELO 231655Z AUTO 21003KT 10SM CLR 23/14 A3004 RMK AO2
KELO 231635Z AUTO 00000KT 10SM CLR 23/14 A3004 RMK AO2
KELO 231615Z AUTO 00000KT 10SM CLR 22/13 A3004 RMK AO2 LTG DSNT N
KELO 231555Z AUTO 00000KT 10SM CLR 21/13 A3005 RMK AO2
KELO 231535Z AUTO 21003KT 10SM SCT090 21/13 A3005 RMK AO2 LTG DSNT N
KELO 231515Z AUTO 19003KT 10SM BKN090 21/13 A3005 RMK AO2
 
 
KHIB 231653Z AUTO VRB04KT 10SM FEW023 SCT032 BKN042 23/17 A3004 RMK AO2 SLP172 T02280167
KHIB 231553Z AUTO VRB05KT 10SM FEW049 SCT060 21/16 A3005 RMK AO2 SLP175 T02110156
 
KEVM 231655Z AUTO 28006KT 10SM CLR 23/16 A3005 RMK AO2 T02330161
KEVM 231635Z AUTO 28004KT 10SM CLR 23/16 A3005 RMK AO2 T02280158
KEVM 231615Z AUTO 22003KT 10SM CLR 22/16 A3005 RMK AO2 LTG DSNT N T02240157
KEVM 231555Z AUTO 28005KT 10SM SCT065 22/16 A3005 RMK AO2 T02170155
KEVM 231535Z AUTO 24003KT 10SM CLR 21/15 A3006 RMK AO2 T02120150
KEVM 231515Z AUTO 25003KT 10SM CLR 20/15 A3006 RMK AO2 T02030146
 
KXVG 231638Z AUTO 30004KT 10SM SCT021 SCT027 BKN033 23/18 A3006 RMK AO2
KXVG 231619Z AUTO 26004KT 10SM SCT013 SCT019 BKN029 23/19 A3006 RMK AO2 LT
 
KGPZ 231656Z AUTO VRB04KT 10SM OVC012 21/18 A3007 RMK AO2 SLP183 T02110183
KGPZ 231650Z AUTO 31003KT 10SM OVC012 21/18 A3007 RMK AO2
KGPZ 231556Z AUTO 21004KT 10SM OVC007 18/17 A3008 RMK AO2 RAB38E55 CIG 005V010 SLP186 P0000 T01830172
KGPZ 231529Z AUTO 22004KT 2 1/2SM BR BKN007 BKN014 OVC019 18/17 A3008 RMK AO2
KGPZ 231511Z AUTO 21004KT 7SM SCT009 BKN022 OVC031 18/16 A3008 RMK AO2
 
KTWM 231655Z AUTO 13005KT 10SM CLR 23/17 A3001 RMK AO2
KTWM 231635Z AUTO 00000KT 10SM SCT110 23/16 A3002 RMK AO2
KTWM 231615Z AUTO 21003KT 10SM CLR 22/15 A3002 RMK AO2
KTWM 231555Z AUTO 22003KT 10SM CLR 22/15 A3002 RMK AO2
KTWM 231535Z AUTO 00000KT 10SM CLR 22/14 A3002 RMK AO2
KTWM 231515Z AUTO 00000KT 10SM CLR 21/14 A3003 RMK AO2
 
KCOQ 231644Z AUTO 18003KT 10SM SCT080 BKN095 22/15 A3004 RMK AO2
KCOQ 231625Z AUTO 00000KT 10SM SCT080 22/14 A3005 RMK AO2
KCOQ 231607Z AUTO 00000KT 10SM SCT100 21/14 A3006 RMK AO2
KCOQ 231548Z AUTO 25005KT 10SM BKN100 21/13 A3006 RMK AO2
KCOQ 231525Z AUTO 26004KT 10SM BKN100 19/13 A3006 RMK AO2
 
KMZH 231655Z AUTO 24003KT 10SM OVC035 21/16 A3004 RMK AO2
KMZH 231635Z AUTO 00000KT 10SM BKN037 BKN049 OVC070 20/16 A3004 RMK AO2
KMZH 231615Z AUTO 00000KT 10SM BKN070 OVC080 20/15 A3004 RMK AO2
KMZH 231555Z AUTO 27004KT 10SM -RA OVC090 20/16 A3005 RMK AO2
KMZH 231535Z AUTO 35003KT 10SM BKN090 OVC110 20/15 A3005 RMK AO2
KMZH 231515Z AUTO 00000KT 10SM OVC110 20/14 A3005 RMK AO2
 
KDYT 231655Z AUTO 22003KT 10SM CLR 23/16 A3003 RMK AO2
KDYT 231635Z AUTO 23005KT 10SM CLR 22/16 A3004 RMK AO2
KDYT 231615Z AUTO 23006KT 10SM CLR 22/16 A3004 RMK AO2
KDYT 231555Z AUTO 23005KT 10SM SCT110 21/14 A3005 RMK AO2
KDYT 231535Z AUTO 00000KT 10SM SCT120 21/14 A3005 RMK AO2
KDYT 231515Z AUTO 25003KT 10SM CLR 21/13 A3005 RMK AO2
 
KTWM 231655Z AUTO 13005KT 10SM CLR 23/17 A3001 RMK AO2
KTWM 231635Z AUTO 00000KT 10SM SCT110 23/16 A3002 RMK AO2
KTWM 231615Z AUTO 21003KT 10SM CLR 22/15 A3002 RMK AO2
KTWM 231555Z AUTO 22003KT 10SM CLR 22/15 A3002 RMK AO2
KTWM 231535Z AUTO 00000KT 10SM CLR 22/14 A3002 RMK AO2
KTWM 231515Z AUTO 00000KT 10SM CLR 21/14 A3003 RMK AO2
 
KBFW 231643Z AUTO 17004KT 10SM SCT110 23/15 A3002 RMK AO2
KBFW 231625Z AUTO 18003KT 10SM SCT110 23/15 A3002 RMK AO2
KBFW 231609Z AUTO 19003KT 10SM SCT110 24/15 A3002 RMK AO2
KBFW 231545Z AUTO 22004KT 10SM CLR 24/15 A3003 RMK AO2
KBFW 231524Z AUTO 20003KT 10SM CLR 24/14 A3003 RMK AO2
 
KDLH 231655Z 27006KT 10SM SCT100 22/15 A3004 RMK AO2 SLP172 T02220150
KDLH 231555Z 30006KT 10SM SCT090 SCT110 22/14 A3005 RMK AO2 SLP177 T02170144
 
KCDD 231655Z AUTO 21003KT 10SM SCT034 BKN070 23/17 A3004 RMK AO2
KCDD 231555Z AUTO 22005KT 10SM SCT030 23/17 A3004 RMK AO2
 
KAIT 231655Z AUTO 30006KT 10SM BKN014 BKN020 OVC036 22/17 A3005 RMK AO2
KAIT 231635Z AUTO 24003KT 10SM SCT014 BKN020 BKN048 21/17 A3005 RMK AO2
KAIT 231615Z AUTO 00000KT 10SM BKN020 OVC048 19/16 A3005 RMK AO2
KAIT 231555Z AUTO 00000KT 10SM OVC020 18/16 A3006 RMK AO2
KAIT 231535Z AUTO 00000KT 10SM OVC022 17/15 A3006 RMK AO2
KAIT 231515Z AUTO 00000KT 10SM OVC024 17/14 A3006 RMK AO2
 
KBRD 231653Z AUTO 30008KT 10SM BKN030 24/17 A3006 RMK AO2 SLP176 T02440172
KBRD 231553Z AUTO 31005KT 8SM SCT013 OVC032 22/18 A3007 RMK AO2 SLP179 T02220178
KBRD 231537Z AUTO 28005KT 8SM FEW013 OVC030 22/17 A3007 RMK AO2 T02170172
 
KPWC 231655Z AUTO 31005KT 10SM SCT025 22/17 A3009 RMK AO2
KPWC 231635Z AUTO 32008KT 10SM SCT025 SCT031 22/16 A3009 RMK AO2
KPWC 231615Z AUTO 32007KT 294V354 10SM SCT016 SCT021 BKN031 21/17 A3009 RMK AO2 LTG DSNT N
KPWC 231555Z AUTO 34006KT 10SM SCT015 BKN031 21/17 A3010 RMK AO2
KPWC 231535Z AUTO 31005KT 10SM OVC031 20/17 A3009 RMK AO2
KPWC 231515Z AUTO 29003KT 10SM OVC029 19/17 A3010 RMK AO2
 
KCQM 231655Z AUTO 26003KT 10SM SCT031 SCT055 24/17 A3004 RMK AO2
KCQM 231635Z AUTO 24004KT 10SM SCT031 23/17 A3004 RMK AO2
KCQM 231615Z AUTO 21004KT 10SM SCT031 23/16 A3003 RMK AO2 LTG DSNT N
KCQM 231606Z AUTO 25004KT 10SM SCT031 23/16 A3004 RMK AO2
KCQM 231535Z AUTO 19003KT 10SM SCT080 22/16 A3004 RMK AO2 LTG DSNT N
KCQM 231515Z AUTO 00000KT 10SM CLR 22/16 A3005 RMK AO2
 
KORB 231653Z AUTO 00000KT 10SM SCT026 BKN033 OVC046 22/16 A3001 RMK AO2
KORB 231633Z AUTO 27005KT 10SM SCT026 BKN035 OVC047 23/16 A3001 RMK AO2
KORB 231613Z AUTO 26005KT 10SM BKN035 23/16 A3001 RMK AO2
KORB 231553Z AUTO 00000KT 10SM SCT031 23/15 A3001 RMK AO2
KORB 231533Z AUTO 20004KT 10SM CLR 23/15 A3002 RMK AO2
KORB 231513Z AUTO 18004KT 10SM SCT028 22/14 A3002 RMK AO2
 
KCKC 231655Z AUTO 15004KT 10SM CLR 23/13 A3006 RMK AO2
KCKC 231635Z AUTO 16005KT 10SM CLR 23/13 A3006 RMK AO2
KCKC 231615Z AUTO 15004KT 10SM CLR 23/13 A3006 RMK AO2
KCKC 231555Z AUTO 16005KT 10SM CLR 23/12 A3006 RMK AO2
KCKC 231535Z AUTO 18003KT 10SM CLR 23/13 A3007 RMK AO2
KCKC 231515Z AUTO 17003KT 10SM CLR 21/13 A3007 RMK AO2
 
KFOZ 231653Z AUTO 00000KT 10SM SCT022 SCT033 24/18 A3003 RMK AO2
KFOZ 231633Z AUTO 24004KT 10SM SCT016 BKN033 23/18 A3004 RMK AO2
KFOZ 231613Z AUTO 25006KT 10SM BKN016 BKN031 23/19 A3004 RMK AO2 LTG DSNT N
KFOZ 231553Z AUTO 25004KT 10SM OVC012 22/18 A3004 RMK AO2
KFOZ 231533Z AUTO 22005KT 10SM OVC010 21/18 A3005 RMK AO2
KFOZ 231513Z AUTO 21004KT 10SM BKN008 OVC013 21/19 A3005 RMK AO2
 
KGNA 231656Z AUTO 24007KT 18/14 A3003 RMK AO1 SLP167 T01780139
KGNA 231556Z AUTO 22003KT 18/13 A3003 RMK AO1 SLP166 T01780133